Time;durP1;ratioP1;P1;durP2;ratioP2;P2;SDS_P1;SDS_P2;PMS_P1;PMS_P2;Temp;Humidity;BMP_temperature;BMP_pressure;BME280_temperature;BME280_humidity;BME280_pressure;Samples;Min_cycle;Max_cycle;Signal;HPM_P1;HPM_P2
2021/12/22 00:02:13;;;;;;;11.73;7.00;;;;;;;-4.02;79.26;61592.38;5139500;27;20221;-76
2021/12/22 00:04:44;;;;;;;14.25;8.00;;;;;;;-4.15;80.34;61583.59;5128423;27;20194;-75
2021/12/22 00:07:11;;;;;;;11.45;7.80;;;;;;;-4.24;80.97;61579.88;5113672;28;20282;-77
2021/12/22 00:09:38;;;;;;;11.35;7.68;;;;;;;-4.25;82.01;61568.41;5130941;27;20195;-76
2021/12/22 00:12:08;;;;;;;11.13;6.97;;;;;;;-4.44;83.22;61547.06;5126704;27;20243;-76
2021/12/22 00:14:34;;;;;;;11.63;7.60;;;;;;;-4.61;84.54;61534.16;5123464;28;20326;-76
2021/12/22 00:17:01;;;;;;;12.50;8.13;;;;;;;-4.51;84.72;61541.88;5121362;28;20239;-76
2021/12/22 00:19:28;;;;;;;14.75;8.55;;;;;;;-4.49;84.93;61541.44;5132150;27;20397;-76
2021/12/22 00:21:55;;;;;;;15.60;8.93;;;;;;;-4.49;84.83;61543.94;5128295;27;20230;-76
2021/12/22 00:24:22;;;;;;;16.40;8.40;;;;;;;-4.47;84.80;61543.50;5120503;28;20200;-76
2021/12/22 00:26:49;;;;;;;13.07;8.52;;;;;;;-4.50;85.05;61540.94;5124491;28;20219;-76
2021/12/22 00:29:18;;;;;;;5.97;4.70;;;;;;;-4.50;83.00;61540.94;5122628;27;20215;-77
2021/12/22 00:31:57;;;;;;;5.22;4.43;;;;;;;-4.56;80.90;61544.75;5135627;27;20574;-76
2021/12/22 00:34:26;;;;;;;6.07;3.90;;;;;;;-4.68;80.58;61530.53;5117376;28;20210;-77
2021/12/22 00:36:53;;;;;;;3.90;3.10;;;;;;;-4.70;80.31;61520.53;5124531;28;20242;-76
2021/12/22 00:39:20;;;;;;;3.40;3.10;;;;;;;-4.74;79.67;61521.94;5130615;27;20240;-77
2021/12/22 00:41:49;;;;;;;4.18;2.95;;;;;;;-4.70;79.13;61523.03;5130583;27;20219;-76
2021/12/22 00:44:17;;;;;;;8.20;5.18;;;;;;;-4.72;77.93;61523.97;5109267;28;20196;-77
2021/12/22 00:46:44;;;;;;;7.45;4.97;;;;;;;-4.73;77.93;61520.47;5113113;28;20244;-77
2021/12/22 00:49:11;;;;;;;8.82;4.78;;;;;;;-5.09;79.44;61486.22;5133150;27;20723;-77
2021/12/22 00:51:38;;;;;;;6.13;4.78;;;;;;;-5.16;80.11;61478.59;5123960;28;20250;-76
2021/12/22 00:54:05;;;;;;;8.00;4.97;;;;;;;-5.18;80.88;61479.56;5118898;28;20266;-76
2021/12/22 00:56:32;;;;;;;6.35;5.10;;;;;;;-5.07;81.14;61490.75;5119638;28;20525;-76
2021/12/22 00:58:59;;;;;;;4.97;3.45;;;;;;;-5.02;80.67;61492.88;5119871;28;20235;-76
2021/12/22 01:01:27;;;;;;;4.22;3.03;;;;;;;-5.07;80.33;61490.25;5113328;28;20220;-76
2021/12/22 01:03:56;;;;;;;3.42;2.53;;;;;;;-5.22;81.15;61475.47;5110745;28;20211;-76
2021/12/22 01:06:23;;;;;;;3.13;2.85;;;;;;;-5.20;81.87;61477.00;5132633;27;20218;-76
2021/12/22 01:08:50;;;;;;;3.65;3.33;;;;;;;-5.22;81.91;61468.03;5125115;28;20203;-77
2021/12/22 01:11:17;;;;;;;3.58;3.28;;;;;;;-5.22;81.60;61467.50;5123112;28;20219;-76
2021/12/22 01:13:44;;;;;;;3.00;2.78;;;;;;;-5.25;82.33;61464.47;5122262;28;20196;-76
2021/12/22 01:16:11;;;;;;;4.63;3.83;;;;;;;-5.30;82.23;61461.84;5131885;27;20531;-77
2021/12/22 01:18:40;;;;;;;6.72;4.03;;;;;;;-5.28;82.23;61458.94;5122614;28;20217;-77
2021/12/22 01:21:13;;;;;;;4.88;3.67;;;;;;;-5.27;82.46;61462.94;5110931;28;20253;-76
2021/12/22 01:23:58;;;;;;;5.07;3.50;;;;;;;-5.29;82.50;61463.38;5125484;27;20240;-75
2021/12/22 01:26:26;;;;;;;4.93;4.00;;;;;;;-5.36;82.69;61463.16;5132691;27;20227;-75
2021/12/22 01:28:53;;;;;;;3.20;2.90;;;;;;;-5.38;83.30;61454.19;5119496;28;20472;-76
2021/12/22 01:31:20;;;;;;;3.88;3.40;;;;;;;-5.38;83.82;61453.69;5127161;28;20243;-75
2021/12/22 01:33:49;;;;;;;4.95;3.55;;;;;;;-5.31;82.98;61456.38;5143869;27;20201;-75
2021/12/22 01:36:16;;;;;;;4.53;3.58;;;;;;;-5.37;83.31;61459.66;5138997;27;20238;-76
2021/12/22 01:38:43;;;;;;;9.50;4.40;;;;;;;-5.39;83.46;61460.09;5130367;27;20209;-76
2021/12/22 01:41:10;;;;;;;8.63;4.95;;;;;;;-5.34;83.53;61457.75;5142069;27;20309;-76
2021/12/22 01:43:37;;;;;;;4.40;3.95;;;;;;;-5.36;83.40;61461.19;5128556;28;20269;-77
2021/12/22 01:46:33;;;;;;;4.90;3.47;;;;;;;-5.40;83.69;61459.59;5126261;27;20471;-76
2021/12/22 01:49:13;;;;;;;13.10;6.05;;;;;;;-5.59;83.63;61432.78;5119435;28;20426;-76
2021/12/22 01:51:45;;;;;;;16.13;7.93;;;;;;;-5.36;84.54;61461.19;5131087;27;20569;-77
2021/12/22 01:54:22;;;;;;;15.10;8.23;;;;;;;-5.38;85.72;61454.19;5126769;28;20278;-76
2021/12/22 01:56:50;;;;;;;14.30;8.63;;;;;;;-5.59;88.23;61427.34;5123428;27;20230;-76
2021/12/22 01:59:20;;;;;;;39.80;18.90;;;;;;;-5.71;90.33;61425.53;5131203;27;20196;-76
2021/12/22 02:01:47;;;;;;;14.88;9.35;;;;;;;-5.67;91.61;61429.09;5117910;28;20220;-76
2021/12/22 02:04:16;;;;;;;14.57;7.95;;;;;;;-5.72;92.17;61417.06;5126694;28;20395;-76
2021/12/22 02:06:45;;;;;;;13.82;7.15;;;;;;;-5.73;92.67;61423.50;5121519;28;20215;-77
2021/12/22 02:09:19;;;;;;;26.55;9.45;;;;;;;-5.71;92.94;61425.03;5132057;27;20205;-77
2021/12/22 02:11:46;;;;;;;14.43;7.78;;;;;;;-5.70;93.19;61421.59;5128370;27;20227;-76
2021/12/22 02:14:13;;;;;;;14.93;9.02;;;;;;;-5.73;93.10;61422.97;5122342;28;20196;-76
2021/12/22 02:16:40;;;;;;;15.05;8.07;;;;;;;-5.72;93.07;61417.06;5126098;28;20235;-77
2021/12/22 02:19:10;;;;;;;12.27;7.07;;;;;;;-5.90;94.03;61398.25;5128618;27;20199;-76
2021/12/22 02:21:43;;;;;;;9.18;7.00;;;;;;;-5.94;94.45;61392.22;5144975;27;20253;-76
2021/12/22 02:24:10;;;;;;;12.52;7.60;;;;;;;-5.81;94.19;61414.81;5120757;28;20203;-76
2021/12/22 02:26:41;;;;;;;13.68;7.78;;;;;;;-5.83;94.04;61413.31;5125732;27;20220;-76
2021/12/22 02:29:20;;;;;;;15.05;8.18;;;;;;;-5.83;94.16;61410.34;5133586;27;20255;-76
2021/12/22 02:32:00;;;;;;;10.63;7.40;;;;;;;-5.83;94.61;61405.38;5127337;28;20418;-76
2021/12/22 02:34:27;;;;;;;14.90;7.75;;;;;;;-5.80;95.24;61411.41;5112727;27;20222;-75
2021/12/22 02:36:59;;;;;;;12.85;8.35;;;;;;;-5.75;95.30;61418.97;5119222;27;20239;-76
2021/12/22 02:39:26;;;;;;;12.60;7.57;;;;;;;-5.82;95.20;61414.31;5126192;28;20207;-76
2021/12/22 02:41:53;;;;;;;13.63;7.47;;;;;;;-5.83;95.50;61405.88;5136977;27;20265;-76
2021/12/22 02:44:20;;;;;;;14.82;8.15;;;;;;;-5.86;95.05;61412.22;5115111;28;20211;-76
2021/12/22 02:46:47;;;;;;;11.38;6.93;;;;;;;-5.93;95.20;61396.22;5136120;27;20239;-77
2021/12/22 02:49:14;;;;;;;12.02;6.82;;;;;;;-5.96;95.26;61392.66;5125079;28;20203;-75
2021/12/22 02:51:41;;;;;;;8.07;6.20;;;;;;;-6.02;95.21;61391.47;5125402;28;20223;-76
2021/12/22 02:54:15;;;;;;;10.20;5.95;;;;;;;-6.06;95.11;61384.94;5125892;27;20198;-76
2021/12/22 02:56:54;;;;;;;10.50;5.80;;;;;;;-6.01;94.83;61393.03;5128395;28;20239;-76
2021/12/22 02:59:48;;;;;;;12.80;6.43;;;;;;;-6.17;95.38;61379.19;5129488;27;20233;-76
2021/12/22 03:02:28;;;;;;;10.10;5.70;;;;;;;-6.18;95.83;61370.25;5125053;27;20235;-77
2021/12/22 03:04:57;;;;;;;11.35;6.85;;;;;;;-6.16;96.11;61377.72;5133815;27;20190;-76
2021/12/22 03:07:25;;;;;;;13.73;8.45;;;;;;;-6.18;96.16;61372.72;5127065;28;20298;-77
2021/12/22 03:10:00;;;;;;;10.73;6.25;;;;;;;-6.18;96.37;61380.66;5125714;28;20207;-75
2021/12/22 03:12:29;;;;;;;13.10;6.82;;;;;;;-6.14;96.58;61381.72;5129080;27;20223;-76
2021/12/22 03:14:56;;;;;;;12.32;6.93;;;;;;;-6.14;97.00;61377.28;5124962;28;20415;-79
2021/12/22 03:17:23;;;;;;;8.40;5.88;;;;;;;-6.11;96.90;61384.81;5136216;27;20222;-76
2021/12/22 03:19:50;;;;;;;10.38;6.10;;;;;;;-6.14;96.81;61379.78;5145729;27;20247;-77
2021/12/22 03:22:19;;;;;;;11.82;7.05;;;;;;;-6.06;96.46;61387.91;5122901;27;20274;-76
2021/12/22 03:24:48;;;;;;;12.43;7.18;;;;;;;-6.07;96.33;61386.91;5122669;28;20241;-76
2021/12/22 03:27:17;;;;;;;11.73;7.57;;;;;;;-6.07;96.33;61384.44;5125093;28;20290;-76
2021/12/22 03:29:44;;;;;;;11.07;6.38;;;;;;;-6.16;96.24;61379.72;5123151;28;20211;-78
2021/12/22 03:32:12;;;;;;;11.20;6.30;;;;;;;-6.12;96.35;61381.81;5124743;27;20436;-77
2021/12/22 03:34:39;;;;;;;6.13;4.68;;;;;;;-6.15;96.30;61383.19;5122285;28;20225;-77
2021/12/22 03:37:07;;;;;;;8.85;5.47;;;;;;;-6.12;95.99;61381.28;5125192;28;20292;-76
2021/12/22 03:39:34;;;;;;;8.27;5.32;;;;;;;-6.16;96.46;61370.31;5129315;27;20374;-77
2021/12/22 03:42:01;;;;;;;8.15;5.28;;;;;;;-6.19;96.54;61374.16;5125329;27;20299;-77
2021/12/22 03:44:29;;;;;;;6.40;5.20;;;;;;;-6.26;97.14;61365.06;5126961;28;20244;-77
2021/12/22 03:46:59;;;;;;;8.95;5.97;;;;;;;-6.19;97.19;61371.69;5126642;28;20247;-77
2021/12/22 03:49:27;;;;;;;9.50;4.88;;;;;;;-6.15;97.14;61381.25;5133353;27;20241;-75
2021/12/22 03:51:53;;;;;;;10.85;5.90;;;;;;;-6.30;96.92;61361.00;5128234;27;20223;-77
2021/12/22 03:54:20;;;;;;;6.80;4.63;;;;;;;-6.28;97.64;61360.56;5139208;27;20198;-76
2021/12/22 03:56:49;;;;;;;11.18;6.05;;;;;;;-6.33;97.83;61359.91;5123843;28;20241;-76
2021/12/22 03:59:16;;;;;;;13.48;7.22;;;;;;;-6.25;97.73;61363.13;5130263;27;20230;-76
2021/12/22 04:01:45;;;;;;;8.63;5.70;;;;;;;-6.33;97.67;61360.41;5123024;27;20220;-77
2021/12/22 04:04:15;;;;;;;6.95;4.55;;;;;;;-6.30;98.28;61361.00;5124375;28;20198;-76
2021/12/22 04:06:44;;;;;;;7.47;4.30;;;;;;;-6.35;98.15;61358.38;5126585;27;20222;-76
2021/12/22 04:09:11;;;;;;;7.38;4.97;;;;;;;-6.40;98.16;61350.31;5133166;27;20256;-76
2021/12/22 04:11:38;;;;;;;8.77;4.78;;;;;;;-6.42;98.63;61358.19;5118257;28;20222;-76
2021/12/22 04:14:05;;;;;;;8.38;4.20;;;;;;;-6.35;98.20;61360.38;5124892;28;20249;-75
2021/12/22 04:16:32;;;;;;;5.60;4.82;;;;;;;-6.58;98.57;61337.44;5123380;27;20516;-77
2021/12/22 04:19:01;;;;;;;6.22;4.72;;;;;;;-6.83;100.00;61309.53;5120447;28;20255;-76
2021/12/22 04:21:29;;;;;;;4.63;3.33;;;;;;;-6.80;100.00;61314.56;5123743;28;20271;-77
2021/12/22 04:23:56;;;;;;;3.90;3.53;;;;;;;-6.69;100.00;61323.78;5121594;28;20237;-76
2021/12/22 04:26:23;;;;;;;6.20;4.25;;;;;;;-6.91;100.00;61300.88;5140129;27;20236;-76
2021/12/22 04:28:50;;;;;;;6.88;3.75;;;;;;;-6.94;100.00;61300.81;5123186;27;20265;-76
2021/12/22 04:31:17;;;;;;;3.60;3.30;;;;;;;-6.87;100.00;61298.03;5124067;28;20227;-77
2021/12/22 04:33:44;;;;;;;3.78;3.15;;;;;;;-6.81;100.00;61311.03;5125895;27;20202;-77
2021/12/22 04:36:13;;;;;;;3.13;2.78;;;;;;;-6.74;99.36;61316.22;5127619;27;20241;-76
2021/12/22 04:38:40;;;;;;;3.13;2.80;;;;;;;-6.91;98.96;61298.41;5119907;28;20200;-76
2021/12/22 04:41:06;;;;;;;18.33;10.32;;;;;;;-6.78;98.98;61309.16;5127185;28;20294;-76
2021/12/22 04:43:33;;;;;;;16.58;6.80;;;;;;;-6.73;98.44;61322.16;5133041;27;20199;-75
2021/12/22 04:46:00;;;;;;;6.35;5.38;;;;;;;-6.66;97.96;61329.28;5124148;27;20219;-76
2021/12/22 04:48:27;;;;;;;6.68;4.65;;;;;;;-6.71;98.09;61323.72;5122907;28;20238;-76
2021/12/22 04:50:54;;;;;;;6.13;4.53;;;;;;;-6.65;97.70;61327.84;5123233;28;20292;-76
2021/12/22 04:53:25;;;;;;;5.85;4.65;;;;;;;-6.58;97.41;61334.47;5133974;27;20195;-76
2021/12/22 04:55:52;;;;;;;12.85;6.78;;;;;;;-6.56;97.23;61338.97;5113733;28;20251;-76
2021/12/22 04:58:19;;;;;;;13.75;6.32;;;;;;;-6.50;97.37;61338.16;5123634;28;20202;-76
2021/12/22 05:00:46;;;;;;;10.40;7.20;;;;;;;-6.42;97.43;61348.78;5119610;28;20216;-75
2021/12/22 05:03:13;;;;;;;10.02;6.80;;;;;;;-6.41;97.35;61349.28;5129456;28;20271;-75
2021/12/22 05:05:40;;;;;;;11.40;6.63;;;;;;;-6.37;97.09;61358.31;5120397;28;20219;-76
2021/12/22 05:08:08;;;;;;;15.13;7.45;;;;;;;-6.31;96.93;61364.41;5127947;28;20226;-76
2021/12/22 05:10:36;;;;;;;14.23;7.13;;;;;;;-6.23;96.57;61370.59;5110388;28;20420;-75
2021/12/22 05:13:03;;;;;;;17.67;10.40;;;;;;;-6.21;96.38;61369.66;5123656;28;20199;-75
2021/12/22 05:15:37;;;;;;;19.53;9.10;;;;;;;-6.23;95.46;61367.63;5116865;28;20282;-75
2021/12/22 05:18:22;;;;;;;17.23;9.73;;;;;;;-6.25;94.79;61366.09;5123944;28;20608;-76
2021/12/22 05:20:49;;;;;;;12.25;8.10;;;;;;;-6.25;94.89;61366.09;5117100;28;20286;-76
2021/12/22 05:23:17;;;;;;;15.52;7.65;;;;;;;-6.26;94.51;61369.50;5118452;28;20195;-77
2021/12/22 05:25:46;;;;;;;9.85;5.95;;;;;;;-6.21;93.58;61369.66;5123736;28;20223;-76
2021/12/22 05:28:13;;;;;;;13.98;7.97;;;;;;;-6.28;93.05;61358.09;5124986;28;20268;-76
2021/12/22 05:30:40;;;;;;;10.38;7.00;;;;;;;-6.20;92.73;61368.19;5124878;28;20227;-75
2021/12/22 05:33:07;;;;;;;13.65;9.23;;;;;;;-6.28;92.50;61363.03;5121765;28;20537;-76
2021/12/22 05:35:34;;;;;;;15.93;8.77;;;;;;;-6.31;93.22;61357.00;5121917;28;20265;-76
2021/12/22 05:38:01;;;;;;;15.02;8.43;;;;;;;-6.39;93.89;61356.28;5120334;28;20199;-76
2021/12/22 05:40:28;;;;;;;13.68;7.53;;;;;;;-6.41;94.73;61351.78;5118274;28;20222;-76
2021/12/22 05:42:58;;;;;;;17.85;9.60;;;;;;;-6.42;94.60;61353.22;5123109;28;20204;-77
2021/12/22 05:45:25;;;;;;;9.68;7.15;;;;;;;-6.45;94.69;61343.25;5122389;28;20211;-75
2021/12/22 05:47:53;;;;;;;11.68;8.02;;;;;;;-6.51;95.09;61346.53;5121451;28;20211;-76
2021/12/22 05:50:21;;;;;;;15.73;6.82;;;;;;;-6.58;95.35;61337.44;5120268;28;20203;-75
2021/12/22 05:52:48;;;;;;;14.95;7.63;;;;;;;-6.53;95.48;61342.53;5123069;28;20242;-76
2021/12/22 05:55:15;;;;;;;12.23;7.03;;;;;;;-6.47;94.66;61348.63;5122433;27;20203;-76
2021/12/22 05:57:42;;;;;;;11.00;6.93;;;;;;;-6.43;93.85;61347.78;5119485;28;20227;-76
2021/12/22 06:00:12;;;;;;;11.45;6.40;;;;;;;-6.42;93.47;61345.81;5122872;28;20230;-76
2021/12/22 06:02:39;;;;;;;8.07;6.07;;;;;;;-6.37;93.10;61358.84;5124508;28;20511;-76
2021/12/22 06:05:06;;;;;;;6.88;5.18;;;;;;;-6.35;93.03;61353.44;5124647;28;20243;-75
2021/12/22 06:07:33;;;;;;;6.90;3.85;;;;;;;-6.34;92.08;61361.38;5130459;28;20233;-75
2021/12/22 06:10:00;;;;;;;5.13;4.18;;;;;;;-6.35;91.93;61352.94;5128877;28;20211;-76
2021/12/22 06:12:27;;;;;;;4.95;3.40;;;;;;;-6.27;91.34;61366.53;5125884;28;20291;-77
2021/12/22 06:14:54;;;;;;;4.25;3.75;;;;;;;-6.30;91.04;61362.97;5124238;28;20195;-77
2021/12/22 06:17:23;;;;;;;5.28;3.92;;;;;;;-6.32;91.31;61356.50;5126585;28;20329;-76
2021/12/22 06:19:50;;;;;;;5.00;4.20;;;;;;;-6.29;91.79;61356.56;5126118;28;20211;-77
2021/12/22 06:22:18;;;;;;;5.78;4.38;;;;;;;-6.26;91.47;61360.13;5124161;27;20218;-77
2021/12/22 06:24:45;;;;;;;4.95;4.55;;;;;;;-6.19;90.65;61377.16;5130049;27;20200;-76
2021/12/22 06:27:11;;;;;;;5.93;3.92;;;;;;;-6.22;90.75;61371.63;5115761;27;20238;-76
2021/12/22 06:29:38;;;;;;;12.43;4.95;;;;;;;-6.16;90.60;61382.69;5120268;28;20199;-76
2021/12/22 06:32:06;;;;;;;10.45;7.07;;;;;;;-6.20;89.36;61376.16;5121021;27;20265;-75
2021/12/22 06:34:34;;;;;;;15.27;9.02;;;;;;;-6.10;88.79;61376.41;5128076;27;20225;-76
2021/12/22 06:37:01;;;;;;;15.05;8.18;;;;;;;-6.09;89.44;61384.38;5127693;27;20543;-77
2021/12/22 06:39:28;;;;;;;16.17;9.43;;;;;;;-6.02;90.03;61394.47;5129453;27;20203;-76
2021/12/22 06:41:55;;;;;;;18.05;9.45;;;;;;;-6.02;90.56;61389.00;5126895;27;20354;-76
2021/12/22 06:44:23;;;;;;;19.67;10.65;;;;;;;-5.97;91.18;61399.56;5135377;27;20504;-76
2021/12/22 06:46:50;;;;;;;17.23;10.05;;;;;;;-5.87;91.84;61403.78;5128706;27;20227;-77
2021/12/22 06:49:17;;;;;;;18.17;10.07;;;;;;;-5.76;92.20;61417.44;5121822;28;20427;-77
2021/12/22 06:51:45;;;;;;;20.60;11.00;;;;;;;-5.76;92.71;61413.00;5131751;27;20223;-76
2021/12/22 06:54:13;;;;;;;21.95;10.38;;;;;;;-5.76;95.43;61414.97;5124710;27;20272;-76
2021/12/22 06:56:40;;;;;;;27.55;9.73;;;;;;;-5.68;94.97;61425.59;5121874;28;20254;-77
2021/12/22 06:59:07;;;;;;;27.52;11.20;;;;;;;-5.70;94.69;61426.53;5132121;27;20199;-76
2021/12/22 07:01:34;;;;;;;22.77;11.25;;;;;;;-5.63;94.99;61428.72;5122478;27;20458;-76
2021/12/22 07:04:02;;;;;;;23.88;10.95;;;;;;;-5.65;94.80;61426.16;5125954;27;20235;-76
2021/12/22 07:06:30;;;;;;;16.25;9.18;;;;;;;-5.63;95.27;61430.69;5125294;27;20506;-75
2021/12/22 07:08:59;;;;;;;18.17;10.50;;;;;;;-5.61;95.89;61430.75;5120601;27;20196;-75
2021/12/22 07:11:26;;;;;;;19.23;10.93;;;;;;;-5.52;95.96;61441.91;5121680;28;20223;-75
2021/12/22 07:13:53;;;;;;;19.95;10.20;;;;;;;-5.18;95.90;61469.13;5125008;27;20257;-75
2021/12/22 07:16:20;;;;;;;21.67;10.30;;;;;;;-4.78;95.30;61512.88;5122747;27;20250;-74
2021/12/22 07:18:47;;;;;;;22.52;11.68;;;;;;;-4.65;93.26;61525.13;5134740;27;20500;-74
2021/12/22 07:21:14;;;;;;;18.58;10.60;;;;;;;-4.39;91.64;61552.16;5121088;28;20219;-75
2021/12/22 07:23:40;;;;;;;15.77;8.73;;;;;;;-4.13;90.79;61578.19;5123755;27;20224;-76
2021/12/22 07:26:13;;;;;;;13.70;9.00;;;;;;;-4.02;89.40;61589.91;5117200;28;20219;-75
2021/12/22 07:28:41;;;;;;;14.68;9.43;;;;;;;-4.11;88.09;61577.72;5131114;27;20525;-76
2021/12/22 07:31:08;;;;;;;17.42;8.15;;;;;;;-3.97;87.40;61597.00;5124008;28;20223;-75
2021/12/22 07:33:35;;;;;;;14.15;8.82;;;;;;;-3.88;86.55;61603.69;5128092;27;20207;-76
2021/12/22 07:36:04;;;;;;;19.05;9.05;;;;;;;-3.84;85.02;61613.25;5123563;27;20285;-76
2021/12/22 07:38:36;;;;;;;16.38;8.55;;;;;;;-4.21;84.67;61570.50;5122257;27;20250;-75
2021/12/22 07:41:05;;;;;;;18.73;8.32;;;;;;;-4.21;84.76;61570.50;5123923;28;20223;-75
2021/12/22 07:43:34;;;;;;;14.35;8.50;;;;;;;-4.24;86.35;61564.47;5122013;28;20223;-75
2021/12/22 07:46:02;;;;;;;15.32;8.40;;;;;;;-4.16;86.47;61577.59;5130087;27;20227;-74
2021/12/22 07:48:29;;;;;;;12.80;9.02;;;;;;;-4.11;86.75;61583.22;5132103;27;20336;-75
2021/12/22 07:50:56;;;;;;;17.63;9.10;;;;;;;-4.16;86.12;61577.59;5124452;27;20286;-76
2021/12/22 07:53:23;;;;;;;14.77;8.57;;;;;;;-4.00;85.12;61593.91;5135332;27;20210;-75
2021/12/22 07:55:53;;;;;;;15.93;9.27;;;;;;;-4.02;86.58;61589.41;5117154;28;20413;-77
2021/12/22 07:58:21;;;;;;;10.98;7.45;;;;;;;-3.86;86.39;61606.25;5128507;27;20228;-76
2021/12/22 08:00:50;;;;;;;12.70;9.02;;;;;;;-3.63;85.25;61634.69;5121320;28;20272;-75
2021/12/22 08:03:17;;;;;;;19.08;9.18;;;;;;;-3.35;83.18;61657.28;5122123;27;20422;-76
2021/12/22 08:05:44;;;;;;;16.15;9.18;;;;;;;-3.62;82.98;61630.22;5124461;28;20551;-76
2021/12/22 08:08:11;;;;;;;15.55;8.27;;;;;;;-3.56;83.71;61636.88;5118860;28;20271;-76
2021/12/22 08:10:39;;;;;;;15.32;7.95;;;;;;;-3.44;83.90;61648.63;5114131;28;20465;-77
2021/12/22 08:13:05;;;;;;;18.17;9.77;;;;;;;-3.55;83.46;61642.88;5112897;28;20198;-76
2021/12/22 08:15:32;;;;;;;13.90;8.90;;;;;;;-3.44;83.45;61648.63;5122779;28;20219;-76
2021/12/22 08:18:00;;;;;;;15.13;8.60;;;;;;;-3.61;82.81;61631.75;5116331;28;20234;-75
2021/12/22 08:20:28;;;;;;;15.35;9.63;;;;;;;-3.61;83.86;61631.25;5119128;28;20258;-75
2021/12/22 08:22:55;;;;;;;14.75;8.80;;;;;;;-3.69;84.17;61620.59;5114214;28;20258;-76
2021/12/22 08:25:22;;;;;;;14.70;9.18;;;;;;;-3.51;83.96;61643.94;5119530;28;20199;-76
2021/12/22 08:27:49;;;;;;;19.73;9.75;;;;;;;-3.24;83.60;61673.50;5124273;28;20261;-75
2021/12/22 08:30:16;;;;;;;15.95;8.93;;;;;;;-2.88;81.02;61702.81;5123709;28;20523;-75
2021/12/22 08:32:43;;;;;;;12.52;8.88;;;;;;;-2.61;79.16;61732.91;5124104;28;20244;-75
2021/12/22 08:35:15;;;;;;;20.65;9.57;;;;;;;-2.73;80.05;61723.63;5123969;28;20199;-76
2021/12/22 08:40:26;;;;;;;20.05;12.65;;;;;;;-2.28;79.56;61766.63;5121891;28;20202;-76
2021/12/22 08:42:53;;;;;;;19.38;11.68;;;;;;;-2.00;76.69;61795.25;5124444;28;20203;-77
2021/12/22 08:45:21;;;;;;;22.90;10.23;;;;;;;-2.40;76.93;61752.38;5124235;28;20212;-76
2021/12/22 08:47:48;;;;;;;19.05;10.02;;;;;;;-2.18;75.58;61779.34;5123691;28;20213;-76
2021/12/22 08:50:18;;;;;;;17.77;9.13;;;;;;;-2.29;75.79;61765.59;5123857;28;20391;-76
2021/12/22 08:52:47;;;;;;;19.48;11.70;;;;;;;-1.97;74.73;61802.81;5123579;28;20211;-75
2021/12/22 08:55:15;;;;;;;21.23;8.68;;;;;;;-2.03;72.67;61794.16;5123600;28;20363;-76
2021/12/22 08:57:42;;;;;;;19.58;8.32;;;;;;;-2.50;74.31;61744.13;5121030;28;20238;-76
2021/12/22 09:00:11;;;;;;;15.45;8.55;;;;;;;-2.36;75.37;61758.44;5119832;28;20271;-75
2021/12/22 09:02:38;;;;;;;11.40;8.10;;;;;;;-2.15;75.33;61777.44;5123791;28;20211;-75
2021/12/22 09:05:06;;;;;;;13.75;8.85;;;;;;;-2.29;73.74;61765.09;5126167;28;20205;-75
2021/12/22 09:07:35;;;;;;;21.30;9.95;;;;;;;-2.31;75.05;61768.53;5127339;28;20199;-76
2021/12/22 09:10:02;;;;;;;12.18;8.20;;;;;;;-1.99;73.94;61800.75;5115902;28;20429;-75
2021/12/22 09:12:29;;;;;;;9.98;7.93;;;;;;;-1.92;72.64;61802.94;5120530;28;20242;-75
2021/12/22 09:14:57;;;;;;;7.60;6.57;;;;;;;-1.92;72.44;61805.94;5123375;28;20528;-76
2021/12/22 09:17:24;;;;;;;11.95;5.90;;;;;;;-1.70;70.84;61825.94;5120013;28;20249;-77
2021/12/22 09:19:53;;;;;;;12.25;6.22;;;;;;;-1.56;70.39;61837.25;5124155;28;20203;-77
2021/12/22 09:22:20;;;;;;;7.72;5.78;;;;;;;-1.69;68.08;61823.97;5123272;28;20223;-76
2021/12/22 09:24:49;;;;;;;19.08;7.13;;;;;;;-2.01;69.15;61798.72;5114297;28;20203;-75
2021/12/22 09:27:16;;;;;;;11.23;6.68;;;;;;;-2.08;70.16;61792.06;5124900;28;20219;-75
2021/12/22 09:29:43;;;;;;;12.70;6.60;;;;;;;-2.23;70.89;61771.22;5123655;28;20204;-75
2021/12/22 09:32:14;;;;;;;10.90;6.65;;;;;;;-1.85;69.39;61810.59;5112991;28;20532;-76
2021/12/22 09:34:41;;;;;;;10.15;6.65;;;;;;;-1.83;69.63;61815.13;5121260;28;20361;-76
2021/12/22 09:37:08;;;;;;;8.23;6.45;;;;;;;-1.59;69.57;61839.19;5123292;28;20227;-76
2021/12/22 09:39:35;;;;;;;18.20;7.25;;;;;;;-1.75;67.41;61820.31;5123523;28;20192;-75
2021/12/22 09:42:04;;;;;;;16.63;7.25;;;;;;;-1.95;69.40;61800.38;5122965;28;20557;-74
2021/12/22 09:44:34;;;;;;;12.82;7.78;;;;;;;-1.73;69.53;61827.34;5126004;28;20203;-74
2021/12/22 09:47:01;;;;;;;16.60;8.63;;;;;;;-1.30;69.21;61866.34;5128512;28;20627;-76
2021/12/22 09:49:46;;;;;;;15.35;8.13;;;;;;;-0.78;66.45;61924.59;5128222;28;20210;-75
2021/12/22 09:52:18;;;;;;;12.63;7.35;;;;;;;-0.57;64.79;61946.09;5127501;28;20436;-76
2021/12/22 09:54:47;;;;;;;8.77;6.78;;;;;;;-1.12;66.29;61884.28;5127249;28;20213;-75
2021/12/22 09:57:17;;;;;;;13.13;8.02;;;;;;;-1.58;67.23;61840.19;5126518;28;20248;-75
2021/12/22 09:59:45;;;;;;;15.25;7.60;;;;;;;-1.27;67.40;61866.94;5127044;28;20195;-76
2021/12/22 10:02:13;;;;;;;17.90;7.43;;;;;;;-0.87;65.89;61909.84;5126792;27;20302;-75
2021/12/22 10:04:40;;;;;;;9.60;7.03;;;;;;;-0.54;64.70;61944.16;5126782;28;20199;-75
2021/12/22 10:07:09;;;;;;;13.32;7.40;;;;;;;-0.38;62.67;61960.06;5126237;28;20223;-75
2021/12/22 10:09:44;;;;;;;12.30;7.47;;;;;;;-0.34;62.02;61969.13;5126904;28;20230;-74
2021/12/22 10:12:18;;;;;;;11.23;6.88;;;;;;;0.02;60.97;61995.50;5124731;28;20286;-75
2021/12/22 10:14:50;;;;;;;12.55;8.65;;;;;;;-0.18;61.19;61980.53;5125817;27;20200;-75
2021/12/22 10:17:31;;;;;;;13.13;8.25;;;;;;;0.06;60.09;62004.59;5125668;28;20256;-75
2021/12/22 10:20:00;;;;;;;15.88;8.63;;;;;;;-0.10;60.28;61991.22;5136652;27;20252;-74
2021/12/22 10:22:31;;;;;;;12.55;8.07;;;;;;;0.28;61.12;62032.16;5125240;27;20215;-76
2021/12/22 10:25:08;;;;;;;14.05;8.50;;;;;;;0.15;60.03;62014.34;5124848;28;20237;-75
2021/12/22 10:27:37;;;;;;;12.73;8.05;;;;;;;0.27;60.03;62028.63;5124664;27;20202;-75
2021/12/22 10:30:27;;;;;;;12.32;8.75;;;;;;;0.56;58.41;62056.38;5127271;27;20253;-75
2021/12/22 10:33:10;;;;;;;13.65;8.20;;;;;;;0.42;58.23;62044.53;5110137;27;20218;-75
2021/12/22 10:35:38;;;;;;;18.42;9.48;;;;;;;0.10;58.51;62011.22;5124887;27;20406;-77
2021/12/22 10:38:07;;;;;;;12.85;9.13;;;;;;;-0.12;59.60;61987.19;5121356;27;20290;-75
2021/12/22 10:40:36;;;;;;;15.57;8.02;;;;;;;-0.04;59.61;61995.41;5125681;28;20227;-75
2021/12/22 10:43:06;;;;;;;14.00;8.52;;;;;;;-0.52;60.82;61948.69;5125628;27;20207;-75
2021/12/22 10:45:35;;;;;;;15.35;8.43;;;;;;;-0.54;61.29;61951.16;5118666;28;20222;-74
2021/12/22 10:50:54;;;;;;;11.43;8.63;;;;;;;-0.09;59.91;61989.75;5116801;28;20222;-75
2021/12/22 10:53:21;;;;;;;13.85;8.55;;;;;;;-0.01;60.29;62003.47;5121663;28;20272;-75
2021/12/22 10:55:50;;;;;;;16.70;8.82;;;;;;;0.25;59.53;62024.59;5120211;28;20215;-75
2021/12/22 10:58:22;;;;;;;11.20;9.00;;;;;;;0.50;58.30;62052.72;5124747;28;20241;-75
2021/12/22 11:01:07;;;;;;;15.65;8.63;;;;;;;0.25;58.65;62027.09;5128319;27;20210;-75
2021/12/22 11:03:39;;;;;;;17.45;10.15;;;;;;;0.43;58.39;62048.03;5117044;27;20290;-75
2021/12/22 11:06:12;;;;;;;16.25;9.45;;;;;;;0.52;58.37;62054.78;5125126;28;20220;-75
2021/12/22 11:08:39;;;;;;;20.27;10.57;;;;;;;0.69;57.44;62077.22;5124825;27;20210;-75
2021/12/22 11:11:14;;;;;;;17.23;11.02;;;;;;;0.59;57.33;62061.44;5123378;27;20407;-76
2021/12/22 11:13:42;;;;;;;20.15;11.73;;;;;;;0.42;56.68;62044.53;5124718;27;20198;-75
2021/12/22 11:16:14;;;;;;;16.85;10.70;;;;;;;0.39;57.64;62038.94;5123871;28;20282;-75
2021/12/22 11:18:41;;;;;;;22.40;10.95;;;;;;;0.31;57.78;62035.25;5124982;27;20283;-74
2021/12/22 11:21:10;;;;;;;22.25;11.02;;;;;;;0.46;57.28;62048.09;5126441;28;20223;-76
2021/12/22 11:23:37;;;;;;;20.38;11.77;;;;;;;-0.08;58.11;61990.78;5120490;28;20194;-75
2021/12/22 11:26:05;;;;;;;19.60;10.77;;;;;;;-0.28;59.20;61970.28;5125521;27;20257;-75
2021/12/22 11:28:34;;;;;;;18.58;11.35;;;;;;;-0.31;58.92;61967.22;5128362;27;20216;-76
2021/12/22 11:31:04;;;;;;;17.98;12.00;;;;;;;-0.40;59.74;61958.00;5123015;27;20215;-75
2021/12/22 11:33:32;;;;;;;22.90;14.07;;;;;;;-0.34;59.49;61966.63;5121482;27;20208;-75
2021/12/22 11:36:00;;;;;;;22.88;11.82;;;;;;;-0.25;59.90;61970.84;5126992;27;20264;-76
2021/12/22 11:38:29;;;;;;;20.05;12.27;;;;;;;0.19;59.47;62017.94;5125971;27;20259;-75
2021/12/22 11:41:08;;;;;;;22.10;13.07;;;;;;;0.29;59.00;62028.69;5123408;28;20261;-75